sensor_id;sensor_type;location;lat;lon;timestamp;pressure;altitude;pressure_sealevel;temperature;humidity
42591;BME280;28218;53.342;-6.216;2023-04-04T00:00:51;102595.00;;;8.50;100.00
42591;BME280;28218;53.342;-6.216;2023-04-04T00:03:19;102598.56;;;8.49;100.00
42591;BME280;28218;53.342;-6.216;2023-04-04T00:05:48;102589.88;;;8.48;100.00
42591;BME280;28218;53.342;-6.216;2023-04-04T00:08:17;102591.66;;;8.48;100.00
42591;BME280;28218;53.342;-6.216;2023-04-04T00:10:45;102587.13;;;8.50;100.00
42591;BME280;28218;53.342;-6.216;2023-04-04T00:13:15;102585.25;;;8.52;100.00
42591;BME280;28218;53.342;-6.216;2023-04-04T00:15:43;102581.75;;;8.51;100.00
42591;BME280;28218;53.342;-6.216;2023-04-04T00:18:11;102573.88;;;8.51;100.00
42591;BME280;28218;53.342;-6.216;2023-04-04T00:20:39;102579.13;;;8.51;100.00
42591;BME280;28218;53.342;-6.216;2023-04-04T00:23:08;102579.03;;;8.53;100.00
42591;BME280;28218;53.342;-6.216;2023-04-04T00:25:37;102577.13;;;8.55;100.00
42591;BME280;28218;53.342;-6.216;2023-04-04T00:28:05;102577.03;;;8.56;100.00
42591;BME280;28218;53.342;-6.216;2023-04-04T00:30:35;102570.91;;;8.56;100.00
42591;BME280;28218;53.342;-6.216;2023-04-04T00:33:03;102567.22;;;8.58;100.00
42591;BME280;28218;53.342;-6.216;2023-04-04T00:35:32;102568.06;;;8.59;100.00
42591;BME280;28218;53.342;-6.216;2023-04-04T00:38:00;102565.56;;;8.57;100.00
42591;BME280;28218;53.342;-6.216;2023-04-04T00:40:28;102556.84;;;8.57;100.00
42591;BME280;28218;53.342;-6.216;2023-04-04T00:42:58;102558.50;;;8.58;100.00
42591;BME280;28218;53.342;-6.216;2023-04-04T00:45:26;102552.81;;;8.64;100.00
42591;BME280;28218;53.342;-6.216;2023-04-04T00:47:56;102554.38;;;8.66;100.00
42591;BME280;28218;53.342;-6.216;2023-04-04T00:50:25;102550.94;;;8.66;100.00
42591;BME280;28218;53.342;-6.216;2023-04-04T00:52:53;102545.13;;;8.61;100.00
42591;BME280;28218;53.342;-6.216;2023-04-04T00:55:22;102546.22;;;8.58;100.00
42591;BME280;28218;53.342;-6.216;2023-04-04T00:57:50;102537.81;;;8.53;100.00
42591;BME280;28218;53.342;-6.216;2023-04-04T01:00:19;102535.19;;;8.53;100.00
42591;BME280;28218;53.342;-6.216;2023-04-04T01:02:47;102543.41;;;8.49;100.00
42591;BME280;28218;53.342;-6.216;2023-04-04T01:05:17;102541.06;;;8.57;100.00
42591;BME280;28218;53.342;-6.216;2023-04-04T01:07:45;102541.91;;;8.57;100.00
42591;BME280;28218;53.342;-6.216;2023-04-04T01:10:13;102535.59;;;8.60;100.00
42591;BME280;28218;53.342;-6.216;2023-04-04T01:12:42;102542.41;;;8.62;100.00
42591;BME280;28218;53.342;-6.216;2023-04-04T01:15:10;102545.66;;;8.66;100.00
42591;BME280;28218;53.342;-6.216;2023-04-04T01:17:39;102546.59;;;8.65;100.00
42591;BME280;28218;53.342;-6.216;2023-04-04T01:20:10;102543.03;;;8.66;100.00
42591;BME280;28218;53.342;-6.216;2023-04-04T01:22:42;102542.09;;;8.67;100.00
42591;BME280;28218;53.342;-6.216;2023-04-04T01:25:14;102536.09;;;8.65;100.00
42591;BME280;28218;53.342;-6.216;2023-04-04T01:27:44;102539.47;;;8.67;100.00
42591;BME280;28218;53.342;-6.216;2023-04-04T01:30:14;102533.38;;;8.66;100.00
42591;BME280;28218;53.342;-6.216;2023-04-04T01:32:46;102548.19;;;8.67;100.00
42591;BME280;28218;53.342;-6.216;2023-04-04T01:35:22;102539.34;;;8.68;100.00
42591;BME280;28218;53.342;-6.216;2023-04-04T01:38:02;102542.81;;;8.69;100.00
42591;BME280;28218;53.342;-6.216;2023-04-04T01:40:37;102534.91;;;8.69;100.00
42591;BME280;28218;53.342;-6.216;2023-04-04T01:43:07;102537.44;;;8.70;100.00
42591;BME280;28218;53.342;-6.216;2023-04-04T01:45:35;102541.00;;;8.69;100.00
42591;BME280;28218;53.342;-6.216;2023-04-04T01:48:04;102536.59;;;8.70;100.00
42591;BME280;28218;53.342;-6.216;2023-04-04T01:50:32;102536.59;;;8.70;100.00
42591;BME280;28218;53.342;-6.216;2023-04-04T01:53:00;102539.13;;;8.72;100.00
42591;BME280;28218;53.342;-6.216;2023-04-04T01:55:28;102530.41;;;8.71;100.00
42591;BME280;28218;53.342;-6.216;2023-04-04T01:57:56;102532.78;;;8.74;100.00
42591;BME280;28218;53.342;-6.216;2023-04-04T02:00:26;102525.66;;;8.76;100.00
42591;BME280;28218;53.342;-6.216;2023-04-04T02:02:54;102529.00;;;8.78;100.00
42591;BME280;28218;53.342;-6.216;2023-04-04T02:05:23;102519.31;;;8.79;100.00
42591;BME280;28218;53.342;-6.216;2023-04-04T02:07:51;102515.84;;;8.78;100.00
42591;BME280;28218;53.342;-6.216;2023-04-04T02:10:19;102519.44;;;8.77;100.00
42591;BME280;28218;53.342;-6.216;2023-04-04T02:12:47;102514.19;;;8.77;100.00
42591;BME280;28218;53.342;-6.216;2023-04-04T02:15:16;102518.47;;;8.78;100.00
42591;BME280;28218;53.342;-6.216;2023-04-04T02:17:47;102512.38;;;8.78;100.00
42591;BME280;28218;53.342;-6.216;2023-04-04T02:20:16;102514.91;;;8.79;100.00
42591;BME280;28218;53.342;-6.216;2023-04-04T02:22:51;102510.72;;;8.77;100.00
42591;BME280;28218;53.342;-6.216;2023-04-04T02:25:21;102512.25;;;8.79;100.00
42591;BME280;28218;53.342;-6.216;2023-04-04T02:27:50;102509.63;;;8.79;100.00
42591;BME280;28218;53.342;-6.216;2023-04-04T02:30:18;102508.09;;;8.77;100.00
42591;BME280;28218;53.342;-6.216;2023-04-04T02:32:47;102506.63;;;8.73;100.00
42591;BME280;28218;53.342;-6.216;2023-04-04T02:35:16;102507.34;;;8.75;100.00
42591;BME280;28218;53.342;-6.216;2023-04-04T02:37:44;102505.91;;;8.70;100.00
42591;BME280;28218;53.342;-6.216;2023-04-04T02:40:14;102494.66;;;8.68;100.00
42591;BME280;28218;53.342;-6.216;2023-04-04T02:42:42;102500.66;;;8.70;100.00
42591;BME280;28218;53.342;-6.216;2023-04-04T02:45:11;102502.22;;;8.73;100.00
42591;BME280;28218;53.342;-6.216;2023-04-04T02:47:40;102502.53;;;8.68;100.00
42591;BME280;28218;53.342;-6.216;2023-04-04T02:50:11;102496.94;;;8.73;100.00
42591;BME280;28218;53.342;-6.216;2023-04-04T02:52:39;102499.69;;;8.72;100.00
42591;BME280;28218;53.342;-6.216;2023-04-04T02:55:08;102494.31;;;8.73;100.00
42591;BME280;28218;53.342;-6.216;2023-04-04T02:57:37;102492.88;;;8.69;100.00
42591;BME280;28218;53.342;-6.216;2023-04-04T03:00:07;102500.03;;;8.67;100.00
42591;BME280;28218;53.342;-6.216;2023-04-04T03:02:35;102489.28;;;8.70;100.00
42591;BME280;28218;53.342;-6.216;2023-04-04T03:05:04;102493.00;;;8.67;100.00
42591;BME280;28218;53.342;-6.216;2023-04-04T03:07:34;102492.38;;;8.64;100.00
42591;BME280;28218;53.342;-6.216;2023-04-04T03:10:02;102491.41;;;8.65;100.00
42591;BME280;28218;53.342;-6.216;2023-04-04T03:12:31;102487.25;;;8.62;100.00
42591;BME280;28218;53.342;-6.216;2023-04-04T03:14:59;102488.91;;;8.63;100.00
42591;BME280;28218;53.342;-6.216;2023-04-04T03:17:27;102489.75;;;8.64;100.00
42591;BME280;28218;53.342;-6.216;2023-04-04T03:19:55;102476.38;;;8.67;100.00
42591;BME280;28218;53.342;-6.216;2023-04-04T03:22:24;102480.69;;;8.68;100.00
42591;BME280;28218;53.342;-6.216;2023-04-04T03:24:53;102463.00;;;8.70;100.00
42591;BME280;28218;53.342;-6.216;2023-04-04T03:27:21;102465.53;;;8.72;100.00
42591;BME280;28218;53.342;-6.216;2023-04-04T03:29:49;102463.97;;;8.69;100.00
42591;BME280;28218;53.342;-6.216;2023-04-04T03:32:18;102469.34;;;8.67;100.00
42591;BME280;28218;53.342;-6.216;2023-04-04T03:34:46;102462.28;;;8.68;100.00
42591;BME280;28218;53.342;-6.216;2023-04-04T03:37:14;102459.44;;;8.71;100.00
42591;BME280;28218;53.342;-6.216;2023-04-04T03:39:42;102467.09;;;8.74;100.00
42591;BME280;28218;53.342;-6.216;2023-04-04T03:42:12;102458.72;;;8.69;100.00
42591;BME280;28218;53.342;-6.216;2023-04-04T03:44:40;102449.88;;;8.70;100.00
42591;BME280;28218;53.342;-6.216;2023-04-04T03:47:08;102454.19;;;8.71;100.00
42591;BME280;28218;53.342;-6.216;2023-04-04T03:49:36;102454.91;;;8.73;100.00
42591;BME280;28218;53.342;-6.216;2023-04-04T03:52:05;102448.94;;;8.71;100.00
42591;BME280;28218;53.342;-6.216;2023-04-04T03:54:33;102461.50;;;8.79;100.00
42591;BME280;28218;53.342;-6.216;2023-04-04T03:57:02;102454.22;;;8.82;100.00
42591;BME280;28218;53.342;-6.216;2023-04-04T03:59:32;102448.97;;;8.82;100.00
42591;BME280;28218;53.342;-6.216;2023-04-04T04:02:00;102451.59;;;8.82;100.00
42591;BME280;28218;53.342;-6.216;2023-04-04T04:04:28;102448.00;;;8.83;100.00
42591;BME280;28218;53.342;-6.216;2023-04-04T04:06:56;102451.38;;;8.85;100.00
42591;BME280;28218;53.342;-6.216;2023-04-04T04:09:25;102453.16;;;8.85;100.00
42591;BME280;28218;53.342;-6.216;2023-04-04T04:11:53;102453.75;;;8.88;100.00
42591;BME280;28218;53.342;-6.216;2023-04-04T04:14:21;102454.72;;;8.87;100.00
42591;BME280;28218;53.342;-6.216;2023-04-04T04:16:50;102457.34;;;8.87;100.00
42591;BME280;28218;53.342;-6.216;2023-04-04T04:19:19;102454.72;;;8.87;100.00
42591;BME280;28218;53.342;-6.216;2023-04-04T04:21:47;102451.97;;;8.89;100.00
42591;BME280;28218;53.342;-6.216;2023-04-04T04:24:15;102453.88;;;8.87;100.00
42591;BME280;28218;53.342;-6.216;2023-04-04T04:26:43;102459.13;;;8.87;100.00
42591;BME280;28218;53.342;-6.216;2023-04-04T04:29:12;102451.97;;;8.89;100.00
42591;BME280;28218;53.342;-6.216;2023-04-04T04:31:40;102449.25;;;8.90;100.00
42591;BME280;28218;53.342;-6.216;2023-04-04T04:34:10;102454.38;;;8.92;100.00
42591;BME280;28218;53.342;-6.216;2023-04-04T04:36:38;102446.34;;;8.93;100.00
42591;BME280;28218;53.342;-6.216;2023-04-04T04:39:06;102442.81;;;8.94;100.00
42591;BME280;28218;53.342;-6.216;2023-04-04T04:41:35;102445.19;;;8.98;100.00
42591;BME280;28218;53.342;-6.216;2023-04-04T04:44:04;102434.66;;;8.98;100.00
42591;BME280;28218;53.342;-6.216;2023-04-04T04:46:33;102443.72;;;8.93;100.00
42591;BME280;28218;53.342;-6.216;2023-04-04T04:49:01;102437.28;;;8.98;100.00
42591;BME280;28218;53.342;-6.216;2023-04-04T04:51:31;102430.16;;;9.00;100.00
42591;BME280;28218;53.342;-6.216;2023-04-04T04:53:59;102428.44;;;8.99;100.00
42591;BME280;28218;53.342;-6.216;2023-04-04T04:56:27;102424.16;;;8.98;100.00
42591;BME280;28218;53.342;-6.216;2023-04-04T04:58:56;102423.31;;;8.97;100.00
42591;BME280;28218;53.342;-6.216;2023-04-04T05:01:24;102423.19;;;8.99;100.00
42591;BME280;28218;53.342;-6.216;2023-04-04T05:03:53;102423.09;;;9.00;100.00
42591;BME280;28218;53.342;-6.216;2023-04-04T05:06:21;102422.25;;;9.00;100.00
42591;BME280;28218;53.342;-6.216;2023-04-04T05:08:50;102427.50;;;9.00;100.00
42591;BME280;28218;53.342;-6.216;2023-04-04T05:11:18;102422.47;;;8.96;100.00
42591;BME280;28218;53.342;-6.216;2023-04-04T05:13:47;102430.38;;;8.96;100.00
42591;BME280;28218;53.342;-6.216;2023-04-04T05:16:15;102434.16;;;8.92;100.00
42591;BME280;28218;53.342;-6.216;2023-04-04T05:18:46;102421.16;;;8.91;100.00
42591;BME280;28218;53.342;-6.216;2023-04-04T05:21:14;102424.97;;;8.87;100.00
42591;BME280;28218;53.342;-6.216;2023-04-04T05:23:43;102420.53;;;8.87;100.00
42591;BME280;28218;53.342;-6.216;2023-04-04T05:26:12;102423.03;;;8.89;100.00
42591;BME280;28218;53.342;-6.216;2023-04-04T05:28:41;102418.66;;;8.89;100.00
42591;BME280;28218;53.342;-6.216;2023-04-04T05:31:09;102419.22;;;8.93;100.00
42591;BME280;28218;53.342;-6.216;2023-04-04T05:33:37;102411.47;;;8.91;100.00
42591;BME280;28218;53.342;-6.216;2023-04-04T05:36:05;102413.16;;;8.92;100.00
42591;BME280;28218;53.342;-6.216;2023-04-04T05:38:34;102410.97;;;8.86;100.00
42591;BME280;28218;53.342;-6.216;2023-04-04T05:41:02;102410.59;;;8.80;100.00
42591;BME280;28218;53.342;-6.216;2023-04-04T05:43:32;102419.44;;;8.79;100.00
42591;BME280;28218;53.342;-6.216;2023-04-04T05:46:01;102420.88;;;8.83;100.00
42591;BME280;28218;53.342;-6.216;2023-04-04T05:48:29;102418.38;;;8.81;100.00
42591;BME280;28218;53.342;-6.216;2023-04-04T05:50:57;102415.84;;;8.80;100.00
42591;BME280;28218;53.342;-6.216;2023-04-04T05:53:25;102420.19;;;8.81;100.00
42591;BME280;28218;53.342;-6.216;2023-04-04T05:55:53;102418.38;;;8.81;100.00
42591;BME280;28218;53.342;-6.216;2023-04-04T05:58:22;102425.09;;;8.85;100.00
42591;BME280;28218;53.342;-6.216;2023-04-04T06:00:51;102425.91;;;8.86;100.00
42591;BME280;28218;53.342;-6.216;2023-04-04T06:03:19;102424.59;;;8.80;100.00
42591;BME280;28218;53.342;-6.216;2023-04-04T06:05:49;102415.97;;;8.78;100.00
42591;BME280;28218;53.342;-6.216;2023-04-04T06:08:19;102421.97;;;8.80;100.00
42591;BME280;28218;53.342;-6.216;2023-04-04T06:10:47;102420.75;;;8.84;100.00
42591;BME280;28218;53.342;-6.216;2023-04-04T06:13:15;102422.56;;;8.84;100.00
42591;BME280;28218;53.342;-6.216;2023-04-04T06:15:43;102428.16;;;8.79;100.00
42591;BME280;28218;53.342;-6.216;2023-04-04T06:18:13;102427.22;;;8.80;100.00
42591;BME280;28218;53.342;-6.216;2023-04-04T06:20:42;102431.41;;;8.83;100.00
42591;BME280;28218;53.342;-6.216;2023-04-04T06:23:10;102432.13;;;8.85;100.00
42591;BME280;28218;53.342;-6.216;2023-04-04T06:25:38;102431.19;;;8.86;100.00
42591;BME280;28218;53.342;-6.216;2023-04-04T06:28:07;102441.56;;;8.87;100.00
42591;BME280;28218;53.342;-6.216;2023-04-04T06:30:36;102437.97;;;8.88;100.00
42591;BME280;28218;53.342;-6.216;2023-04-04T06:33:05;102443.25;;;8.88;100.00
42591;BME280;28218;53.342;-6.216;2023-04-04T06:35:35;102443.03;;;8.91;100.00
42591;BME280;28218;53.342;-6.216;2023-04-04T06:38:03;102438.47;;;8.93;100.00
42591;BME280;28218;53.342;-6.216;2023-04-04T06:40:31;102446.13;;;8.96;100.00
42591;BME280;28218;53.342;-6.216;2023-04-04T06:42:59;102451.75;;;9.03;100.00
42591;BME280;28218;53.342;-6.216;2023-04-04T06:45:28;102443.03;;;9.03;100.00
42591;BME280;28218;53.342;-6.216;2023-04-04T06:47:59;102439.22;;;9.07;100.00
42591;BME280;28218;53.342;-6.216;2023-04-04T06:50:29;102442.34;;;9.01;100.00
42591;BME280;28218;53.342;-6.216;2023-04-04T06:52:59;102447.13;;;9.07;100.00
42591;BME280;28218;53.342;-6.216;2023-04-04T06:55:28;102441.84;;;9.07;100.00
42591;BME280;28218;53.342;-6.216;2023-04-04T06:57:56;102443.66;;;9.06;100.00
42591;BME280;28218;53.342;-6.216;2023-04-04T07:00:24;102440.06;;;9.07;100.00
42591;BME280;28218;53.342;-6.216;2023-04-04T07:02:56;102430.91;;;9.13;100.00
42591;BME280;28218;53.342;-6.216;2023-04-04T07:05:25;102428.25;;;9.13;100.00
42591;BME280;28218;53.342;-6.216;2023-04-04T07:07:53;102422.75;;;9.16;100.00
42591;BME280;28218;53.342;-6.216;2023-04-04T07:10:24;102428.75;;;9.18;100.00
42591;BME280;28218;53.342;-6.216;2023-04-04T07:12:53;102418.31;;;9.16;100.00
42591;BME280;28218;53.342;-6.216;2023-04-04T07:15:21;102418.31;;;9.16;100.00
42591;BME280;28218;53.342;-6.216;2023-04-04T07:17:49;102414.84;;;9.16;100.00
42591;BME280;28218;53.342;-6.216;2023-04-04T07:20:18;102412.22;;;9.16;100.00
42591;BME280;28218;53.342;-6.216;2023-04-04T07:22:47;102406.75;;;9.19;100.00
42591;BME280;28218;53.342;-6.216;2023-04-04T07:25:16;102406.63;;;9.20;100.00
42591;BME280;28218;53.342;-6.216;2023-04-04T07:27:45;102403.75;;;9.24;100.00
42591;BME280;28218;53.342;-6.216;2023-04-04T07:30:14;102407.00;;;9.27;100.00
42591;BME280;28218;53.342;-6.216;2023-04-04T07:32:42;102402.31;;;9.31;100.00
42591;BME280;28218;53.342;-6.216;2023-04-04T07:35:10;102408.06;;;9.36;100.00
42591;BME280;28218;53.342;-6.216;2023-04-04T07:37:39;102398.00;;;9.41;100.00
42591;BME280;28218;53.342;-6.216;2023-04-04T07:40:08;102403.28;;;9.41;100.00
42591;BME280;28218;53.342;-6.216;2023-04-04T07:42:42;102393.81;;;9.50;100.00
42591;BME280;28218;53.342;-6.216;2023-04-04T07:45:12;102396.94;;;9.55;100.00
42591;BME280;28218;53.342;-6.216;2023-04-04T07:47:42;102386.91;;;9.60;100.00
42591;BME280;28218;53.342;-6.216;2023-04-04T07:50:10;102385.69;;;9.64;100.00
42591;BME280;28218;53.342;-6.216;2023-04-04T07:52:39;102373.84;;;9.69;100.00
42591;BME280;28218;53.342;-6.216;2023-04-04T07:55:08;102369.06;;;9.75;100.00
42591;BME280;28218;53.342;-6.216;2023-04-04T07:57:37;102356.00;;;9.73;100.00
42591;BME280;28218;53.342;-6.216;2023-04-04T08:00:06;102345.94;;;9.78;100.00
42591;BME280;28218;53.342;-6.216;2023-04-04T08:02:38;102349.78;;;9.85;100.00
42591;BME280;28218;53.342;-6.216;2023-04-04T08:05:07;102347.97;;;9.86;100.00
42591;BME280;28218;53.342;-6.216;2023-04-04T08:07:36;102354.44;;;9.93;100.00
42591;BME280;28218;53.342;-6.216;2023-04-04T08:10:05;102350.69;;;9.95;100.00
42591;BME280;28218;53.342;-6.216;2023-04-04T08:12:33;102347.31;;;10.05;100.00
42591;BME280;28218;53.342;-6.216;2023-04-04T08:15:02;102342.38;;;10.11;100.00
42591;BME280;28218;53.342;-6.216;2023-04-04T08:17:30;102342.97;;;10.15;100.00
42591;BME280;28218;53.342;-6.216;2023-04-04T08:20:00;102344.38;;;10.19;100.00
42591;BME280;28218;53.342;-6.216;2023-04-04T08:22:28;102341.88;;;10.17;100.00
42591;BME280;28218;53.342;-6.216;2023-04-04T08:24:56;102336.72;;;10.16;100.00
42591;BME280;28218;53.342;-6.216;2023-04-04T08:27:24;102328.72;;;10.17;100.00
42591;BME280;28218;53.342;-6.216;2023-04-04T08:29:53;102331.22;;;10.19;100.00
42591;BME280;28218;53.342;-6.216;2023-04-04T08:32:21;102322.84;;;10.14;100.00
42591;BME280;28218;53.342;-6.216;2023-04-04T08:34:49;102329.69;;;10.16;100.00
42591;BME280;28218;53.342;-6.216;2023-04-04T08:37:19;102328.72;;;10.17;100.00
42591;BME280;28218;53.342;-6.216;2023-04-04T08:39:48;102328.34;;;10.22;100.00
42591;BME280;28218;53.342;-6.216;2023-04-04T08:42:17;102328.19;;;10.23;100.00
42591;BME280;28218;53.342;-6.216;2023-04-04T08:44:48;102332.44;;;10.26;100.00
42591;BME280;28218;53.342;-6.216;2023-04-04T08:47:20;102332.16;;;10.29;100.00
42591;BME280;28218;53.342;-6.216;2023-04-04T08:49:52;102327.22;;;10.36;100.00
42591;BME280;28218;53.342;-6.216;2023-04-04T08:52:23;102336.56;;;10.40;100.00
42591;BME280;28218;53.342;-6.216;2023-04-04T08:54:54;102341.91;;;10.49;100.00
42591;BME280;28218;53.342;-6.216;2023-04-04T08:57:23;102344.97;;;10.55;100.00
42591;BME280;28218;53.342;-6.216;2023-04-04T08:59:52;102341.00;;;10.60;100.00
42591;BME280;28218;53.342;-6.216;2023-04-04T09:02:26;102331.72;;;10.66;100.00
42591;BME280;28218;53.342;-6.216;2023-04-04T09:04:57;102322.59;;;10.70;100.00
42591;BME280;28218;53.342;-6.216;2023-04-04T09:07:34;102333.13;;;10.70;100.00
42591;BME280;28218;53.342;-6.216;2023-04-04T09:10:07;102319.81;;;10.71;100.00
42591;BME280;28218;53.342;-6.216;2023-04-04T09:12:40;102326.50;;;10.75;100.00
42591;BME280;28218;53.342;-6.216;2023-04-04T09:15:10;102326.38;;;10.77;100.00
42591;BME280;28218;53.342;-6.216;2023-04-04T09:17:39;102330.69;;;10.78;100.00
42591;BME280;28218;53.342;-6.216;2023-04-04T09:20:32;102330.38;;;10.71;100.00
42591;BME280;28218;53.342;-6.216;2023-04-04T09:23:04;102332.38;;;10.79;100.00
42591;BME280;28218;53.342;-6.216;2023-04-04T09:25:32;102340.97;;;10.81;100.00
42591;BME280;28218;53.342;-6.216;2023-04-04T09:28:01;102339.88;;;10.84;100.00
42591;BME280;28218;53.342;-6.216;2023-04-04T09:30:32;102337.69;;;10.89;100.00
42591;BME280;28218;53.342;-6.216;2023-04-04T09:33:03;102338.97;;;10.94;100.00
42591;BME280;28218;53.342;-6.216;2023-04-04T09:35:33;102337.50;;;11.02;100.00
42591;BME280;28218;53.342;-6.216;2023-04-04T09:38:04;102337.38;;;11.13;100.00
42591;BME280;28218;53.342;-6.216;2023-04-04T09:40:34;102342.84;;;11.21;100.00
42591;BME280;28218;53.342;-6.216;2023-04-04T09:43:06;102346.91;;;11.25;100.00
42591;BME280;28218;53.342;-6.216;2023-04-04T09:45:36;102345.53;;;11.31;100.00
42591;BME280;28218;53.342;-6.216;2023-04-04T09:48:06;102339.28;;;11.32;100.00
42591;BME280;28218;53.342;-6.216;2023-04-04T09:50:35;102340.09;;;11.32;100.00
42591;BME280;28218;53.342;-6.216;2023-04-04T09:53:06;102343.56;;;11.33;100.00
42591;BME280;28218;53.342;-6.216;2023-04-04T09:55:35;102330.81;;;11.38;100.00
42591;BME280;28218;53.342;-6.216;2023-04-04T09:58:11;102342.91;;;11.40;100.00
42591;BME280;28218;53.342;-6.216;2023-04-04T10:00:40;102340.13;;;11.42;100.00
42591;BME280;28218;53.342;-6.216;2023-04-04T10:03:14;102331.13;;;11.44;100.00
42591;BME280;28218;53.342;-6.216;2023-04-04T10:05:44;102329.31;;;11.45;100.00
42591;BME280;28218;53.342;-6.216;2023-04-04T10:08:15;102338.47;;;11.41;100.00
42591;BME280;28218;53.342;-6.216;2023-04-04T10:10:46;102329.72;;;11.40;100.00
42591;BME280;28218;53.342;-6.216;2023-04-04T10:13:33;102326.09;;;11.41;100.00
42591;BME280;28218;53.342;-6.216;2023-04-04T10:16:03;102327.78;;;11.42;100.00
42591;BME280;28218;53.342;-6.216;2023-04-04T10:18:33;102334.75;;;11.43;100.00
42591;BME280;28218;53.342;-6.216;2023-04-04T10:21:03;102343.19;;;11.37;100.00
42591;BME280;28218;53.342;-6.216;2023-04-04T10:23:44;102346.53;;;11.39;100.00
42591;BME280;28218;53.342;-6.216;2023-04-04T10:26:13;102340.28;;;11.40;100.00
42591;BME280;28218;53.342;-6.216;2023-04-04T10:28:42;102345.16;;;11.45;100.00
42591;BME280;28218;53.342;-6.216;2023-04-04T10:31:15;102337.66;;;11.50;100.00
42591;BME280;28218;53.342;-6.216;2023-04-04T10:33:49;102339.91;;;11.55;100.00
42591;BME280;28218;53.342;-6.216;2023-04-04T10:36:22;102337.69;;;11.60;100.00
42591;BME280;28218;53.342;-6.216;2023-04-04T10:38:57;102356.16;;;11.60;100.00
42591;BME280;28218;53.342;-6.216;2023-04-04T10:41:31;102356.06;;;11.71;100.00
42591;BME280;28218;53.342;-6.216;2023-04-04T10:44:07;102347.72;;;11.75;100.00
42591;BME280;28218;53.342;-6.216;2023-04-04T10:46:40;102336.63;;;11.82;100.00
42591;BME280;28218;53.342;-6.216;2023-04-04T10:49:10;102329.84;;;11.89;100.00
42591;BME280;28218;53.342;-6.216;2023-04-04T10:51:39;102324.56;;;11.98;100.00
42591;BME280;28218;53.342;-6.216;2023-04-04T10:54:24;102324.16;;;12.13;100.00
42591;BME280;28218;53.342;-6.216;2023-04-04T10:56:54;102329.84;;;12.27;100.00
42591;BME280;28218;53.342;-6.216;2023-04-04T10:59:26;102337.78;;;12.37;100.00
42591;BME280;28218;53.342;-6.216;2023-04-04T11:01:56;102338.91;;;12.44;100.00
42591;BME280;28218;53.342;-6.216;2023-04-04T11:04:30;102351.00;;;12.47;100.00
42591;BME280;28218;53.342;-6.216;2023-04-04T11:07:10;102353.66;;;12.47;100.00
42591;BME280;28218;53.342;-6.216;2023-04-04T11:09:59;102348.78;;;12.42;100.00
42591;BME280;28218;53.342;-6.216;2023-04-04T11:12:29;102344.47;;;12.32;100.00
42591;BME280;28218;53.342;-6.216;2023-04-04T11:15:05;102329.31;;;12.24;100.00
42591;BME280;28218;53.342;-6.216;2023-04-04T11:17:54;102324.72;;;12.26;100.00
42591;BME280;28218;53.342;-6.216;2023-04-04T11:20:28;102318.75;;;12.24;100.00
42591;BME280;28218;53.342;-6.216;2023-04-04T11:23:04;102328.59;;;12.22;100.00
42591;BME280;28218;53.342;-6.216;2023-04-04T11:25:38;102329.44;;;12.22;100.00
42591;BME280;28218;53.342;-6.216;2023-04-04T11:28:11;102325.28;;;12.20;100.00
42591;BME280;28218;53.342;-6.216;2023-04-04T11:30:42;102323.88;;;12.16;100.00
42591;BME280;28218;53.342;-6.216;2023-04-04T11:33:26;102319.84;;;12.12;100.00
42591;BME280;28218;53.342;-6.216;2023-04-04T11:35:58;102313.59;;;12.13;100.00
42591;BME280;28218;53.342;-6.216;2023-04-04T11:38:27;102294.25;;;12.12;100.00
42591;BME280;28218;53.342;-6.216;2023-04-04T11:40:58;102293.16;;;12.05;100.00
42591;BME280;28218;53.342;-6.216;2023-04-04T11:43:26;102291.63;;;12.02;100.00
42591;BME280;28218;53.342;-6.216;2023-04-04T11:46:04;102281.75;;;11.95;100.00
42591;BME280;28218;53.342;-6.216;2023-04-04T11:48:34;102278.16;;;11.96;100.00
42591;BME280;28218;53.342;-6.216;2023-04-04T11:51:04;102281.47;;;11.98;100.00
42591;BME280;28218;53.342;-6.216;2023-04-04T11:53:33;102279.81;;;11.97;100.00
42591;BME280;28218;53.342;-6.216;2023-04-04T11:56:03;102269.94;;;11.99;100.00
42591;BME280;28218;53.342;-6.216;2023-04-04T11:58:33;102279.66;;;11.98;100.00
42591;BME280;28218;53.342;-6.216;2023-04-04T12:01:03;102280.22;;;12.02;100.00
42591;BME280;28218;53.342;-6.216;2023-04-04T12:03:33;102282.72;;;12.03;100.00
42591;BME280;28218;53.342;-6.216;2023-04-04T12:06:02;102266.31;;;12.10;100.00
42591;BME280;28218;53.342;-6.216;2023-04-04T12:08:30;102268.00;;;12.11;100.00
42591;BME280;28218;53.342;-6.216;2023-04-04T12:11:06;102260.75;;;12.13;100.00
42591;BME280;28218;53.342;-6.216;2023-04-04T12:13:41;102248.91;;;12.17;100.00
42591;BME280;28218;53.342;-6.216;2023-04-04T12:16:10;102248.63;;;12.30;100.00
42591;BME280;28218;53.342;-6.216;2023-04-04T12:18:38;102246.41;;;12.35;100.00
42591;BME280;28218;53.342;-6.216;2023-04-04T12:21:07;102248.88;;;12.36;100.00
42591;BME280;28218;53.342;-6.216;2023-04-04T12:23:35;102241.78;;;12.37;100.00
42591;BME280;28218;53.342;-6.216;2023-04-04T12:26:05;102241.06;;;12.54;100.00
42591;BME280;28218;53.342;-6.216;2023-04-04T12:28:35;102235.31;;;12.96;100.00
42591;BME280;28218;53.342;-6.216;2023-04-04T12:31:05;102243.22;;;13.33;100.00
42591;BME280;28218;53.342;-6.216;2023-04-04T12:33:34;102241.22;;;13.63;100.00
42591;BME280;28218;53.342;-6.216;2023-04-04T12:36:04;102233.19;;;13.90;100.00
42591;BME280;28218;53.342;-6.216;2023-04-04T12:38:33;102232.56;;;13.96;100.00
42591;BME280;28218;53.342;-6.216;2023-04-04T12:41:15;102231.81;;;13.86;100.00
42591;BME280;28218;53.342;-6.216;2023-04-04T12:43:45;102233.25;;;13.80;100.00
42591;BME280;28218;53.342;-6.216;2023-04-04T12:46:13;102226.75;;;13.75;100.00
42591;BME280;28218;53.342;-6.216;2023-04-04T12:48:42;102236.81;;;13.71;100.00